METAR Data
IDs: Format: Raw Decoded Include TAF

Data at: 1215 UTC 17 Sep 2019

NZWN 171200Z AUTO 06004KT 020V090 9999 NCD 08/05 Q1024 BECMG 18010KT
NZWN 171130Z AUTO 06003KT 9999 FEW065/// 09/05 Q1024 BECMG FM1200 18010KT
NZWN 171100Z AUTO 03004KT 9999 SCT065/// BKN080/// 09/05 Q1023 BECMG FM1200 18010KT
NZWN 171030Z AUTO 03004KT 9999 FEW070/// 08/04 Q1023 NOSIG
NZWN 171000Z AUTO 03003KT 9999 NCD 09/04 Q1022 NOSIG
NZWN 170930Z AUTO 11001KT 9999 NCD 09/04 Q1022 NOSIG

TAF NZWN 171102Z 1712/1812 02005KT 9999 FEW060
  BECMG 1712/1714 18010KT
  BECMG 1717/1719 02010KT